Time;durP1;ratioP1;P1;durP2;ratioP2;P2;SDS_P1;SDS_P2;PMS_P1;PMS_P2;Temp;Humidity;BMP_temperature;BMP_pressure;BME280_temperature;BME280_humidity;BME280_pressure;Samples;Min_cycle;Max_cycle;Signal;HPM_P1;HPM_P2
2024/02/24 00:02:40;;;;;;;0.97;0.97;;;;;;;;;;5004425;28;20201;-91
2024/02/24 00:05:46;;;;;;;0.60;0.60;;;;;;;;;;5008235;28;20185;-91
2024/02/24 00:08:51;;;;;;;0.30;0.30;;;;;;;;;;5008348;28;20209;-92
2024/02/24 00:11:56;;;;;;;0.67;0.67;;;;;;;;;;5008305;28;20192;-92
2024/02/24 00:15:01;;;;;;;1.50;1.23;;;;;;;;;;5007716;28;20659;-92
2024/02/24 00:18:09;;;;;;;1.07;1.00;;;;;;;;;;5007830;28;20173;-92
2024/02/24 00:21:14;;;;;;;1.63;1.10;;;;;;;;;;5008255;28;20252;-93
2024/02/24 00:24:19;;;;;;;1.50;1.33;;;;;;;;;;5010415;28;20181;-92
2024/02/24 00:27:25;;;;;;;0.60;0.60;;;;;;;;;;5010332;28;20192;-91
2024/02/24 00:30:30;;;;;;;3.83;1.27;;;;;;;;;;5007829;28;20252;-93
2024/02/24 00:33:38;;;;;;;1.20;1.10;;;;;;;;;;5007998;28;20192;-91
2024/02/24 00:36:51;;;;;;;2.20;1.13;;;;;;;;;;5008184;28;20190;-90
2024/02/24 00:39:57;;;;;;;0.60;0.60;;;;;;;;;;4991040;28;20329;-92
2024/02/24 00:43:02;;;;;;;0.77;0.77;;;;;;;;;;5002811;28;20205;-91
2024/02/24 00:46:08;;;;;;;0.53;0.53;;;;;;;;;;5008069;28;20192;-91
2024/02/24 00:49:15;;;;;;;0.40;0.40;;;;;;;;;;5006949;28;20224;-91
2024/02/24 00:52:20;;;;;;;0.50;0.50;;;;;;;;;;5006623;28;20525;-93
2024/02/24 00:55:25;;;;;;;0.67;0.67;;;;;;;;;;5006441;28;20189;-92
2024/02/24 00:58:30;;;;;;;0.67;0.63;;;;;;;;;;5005704;28;20188;-93
2024/02/24 01:01:35;;;;;;;0.40;0.40;;;;;;;;;;5005596;28;20205;-93
2024/02/24 01:04:43;;;;;;;0.60;0.60;;;;;;;;;;5007632;28;20193;-92
2024/02/24 01:07:48;;;;;;;0.70;0.70;;;;;;;;;;5006699;28;20695;-91
2024/02/24 01:10:53;;;;;;;0.40;0.40;;;;;;;;;;5008202;28;20260;-92
2024/02/24 01:13:58;;;;;;;1.10;1.03;;;;;;;;;;5007049;28;20181;-92
2024/02/24 01:17:03;;;;;;;2.13;1.57;;;;;;;;;;5006060;28;20193;-92
2024/02/24 01:20:11;;;;;;;1.47;0.80;;;;;;;;;;5007407;28;20181;-92
2024/02/24 01:23:16;;;;;;;0.53;0.53;;;;;;;;;;4987488;28;20197;-91
2024/02/24 01:26:22;;;;;;;2.70;1.10;;;;;;;;;;4987382;28;20233;-93
2024/02/24 01:29:27;;;;;;;0.70;0.70;;;;;;;;;;4986995;28;20214;-91
2024/02/24 01:32:33;;;;;;;0.70;0.70;;;;;;;;;;4986970;28;20205;-92
2024/02/24 01:35:39;;;;;;;0.83;0.83;;;;;;;;;;4987348;28;20197;-92
2024/02/24 01:38:44;;;;;;;1.77;0.93;;;;;;;;;;4988645;28;20194;-92
2024/02/24 01:41:49;;;;;;;0.70;0.70;;;;;;;;;;5007325;28;20188;-92
2024/02/24 01:44:54;;;;;;;0.43;0.43;;;;;;;;;;5007314;28;20220;-92
2024/02/24 01:47:59;;;;;;;3.60;1.03;;;;;;;;;;5006633;28;20189;-92
2024/02/24 01:51:06;;;;;;;0.60;0.60;;;;;;;;;;5000681;28;20272;-92
2024/02/24 01:54:12;;;;;;;0.40;0.40;;;;;;;;;;5006310;28;20248;-92
2024/02/24 01:57:18;;;;;;;0.87;0.87;;;;;;;;;;5006323;28;20582;-92
2024/02/24 02:00:23;;;;;;;1.50;1.00;;;;;;;;;;5007307;28;20266;-93
2024/02/24 02:03:28;;;;;;;0.87;0.87;;;;;;;;;;5006890;28;20336;-92
2024/02/24 02:06:35;;;;;;;1.70;0.87;;;;;;;;;;5005416;28;20229;-92
2024/02/24 02:09:54;;;;;;;1.00;0.90;;;;;;;;;;5007615;28;20220;-91
2024/02/24 02:12:59;;;;;;;0.60;0.60;;;;;;;;;;5010188;28;20760;-91
2024/02/24 02:16:05;;;;;;;0.77;0.77;;;;;;;;;;5008040;28;20201;-92
2024/02/24 02:19:10;;;;;;;0.40;0.40;;;;;;;;;;5005371;28;20669;-92
2024/02/24 02:22:17;;;;;;;0.40;0.40;;;;;;;;;;5005796;28;20221;-92
2024/02/24 02:25:24;;;;;;;3.30;1.20;;;;;;;;;;5006108;28;20871;-92
2024/02/24 02:28:29;;;;;;;0.97;0.67;;;;;;;;;;5004133;28;20228;-92
2024/02/24 02:31:34;;;;;;;1.37;1.27;;;;;;;;;;5005524;28;20196;-91
2024/02/24 02:34:39;;;;;;;1.33;1.23;;;;;;;;;;5017120;28;20567;-92
2024/02/24 02:37:45;;;;;;;0.80;0.80;;;;;;;;;;5024794;28;20228;-93
2024/02/24 02:40:52;;;;;;;3.70;2.20;;;;;;;;;;5030735;28;20173;-91
2024/02/24 02:43:57;;;;;;;1.33;1.17;;;;;;;;;;5024546;28;20332;-92
2024/02/24 02:47:02;;;;;;;1.07;0.50;;;;;;;;;;5026774;28;20224;-92
2024/02/24 02:50:08;;;;;;;1.23;1.13;;;;;;;;;;5027196;28;20271;-92
2024/02/24 02:53:13;;;;;;;0.40;0.40;;;;;;;;;;5024972;28;20268;-91
2024/02/24 02:56:20;;;;;;;2.00;1.47;;;;;;;;;;5026434;28;20195;-91
2024/02/24 02:59:25;;;;;;;0.90;0.90;;;;;;;;;;5026330;28;20211;-91
2024/02/24 03:02:30;;;;;;;1.33;1.10;;;;;;;;;;5026550;28;20184;-92
2024/02/24 03:05:36;;;;;;;0.80;0.80;;;;;;;;;;5026701;28;20240;-92
2024/02/24 03:08:41;;;;;;;1.10;0.90;;;;;;;;;;5025866;28;20597;-90
2024/02/24 03:11:48;;;;;;;1.17;1.07;;;;;;;;;;4986340;28;20166;-90
2024/02/24 03:14:53;;;;;;;0.70;0.70;;;;;;;;;;4987250;28;20177;-91
2024/02/24 03:17:58;;;;;;;0.40;0.40;;;;;;;;;;4986967;28;20194;-91
2024/02/24 03:21:03;;;;;;;1.03;0.87;;;;;;;;;;4986303;28;20325;-90
2024/02/24 03:24:08;;;;;;;0.87;0.87;;;;;;;;;;4986529;28;20189;-92
2024/02/24 03:27:15;;;;;;;1.33;0.87;;;;;;;;;;4986207;28;20194;-92
2024/02/24 03:30:21;;;;;;;2.47;1.03;;;;;;;;;;4984595;28;20221;-91
2024/02/24 03:33:26;;;;;;;0.73;0.73;;;;;;;;;;4983260;28;20325;-91
2024/02/24 03:36:31;;;;;;;1.07;0.83;;;;;;;;;;4983865;28;20193;-92
2024/02/24 03:39:38;;;;;;;0.40;0.40;;;;;;;;;;4987667;28;20197;-92
2024/02/24 03:42:44;;;;;;;0.50;0.50;;;;;;;;;;5003475;28;20191;-91
2024/02/24 03:45:50;;;;;;;0.40;0.40;;;;;;;;;;5004803;28;20263;-92
2024/02/24 03:48:58;;;;;;;0.50;0.50;;;;;;;;;;5006088;28;20189;-92
2024/02/24 03:52:03;;;;;;;0.87;0.50;;;;;;;;;;5004403;28;20169;-92
2024/02/24 03:55:08;;;;;;;0.60;0.60;;;;;;;;;;5003517;28;20216;-90
2024/02/24 03:58:15;;;;;;;1.07;1.00;;;;;;;;;;5002897;28;20189;-91
2024/02/24 04:01:20;;;;;;;5.30;1.07;;;;;;;;;;5004498;28;20571;-91
2024/02/24 04:04:25;;;;;;;0.73;0.63;;;;;;;;;;5006324;28;20189;-91
2024/02/24 04:07:31;;;;;;;0.53;0.53;;;;;;;;;;5004631;28;20276;-91
2024/02/24 04:10:36;;;;;;;1.80;1.00;;;;;;;;;;5003450;28;20224;-92
2024/02/24 04:13:43;;;;;;;0.40;0.40;;;;;;;;;;5002027;28;20197;-92
2024/02/24 04:16:49;;;;;;;0.53;0.53;;;;;;;;;;5006073;28;20212;-91
2024/02/24 04:40:35;;;;;;;0.30;0.30;;;;;;;;;;5003788;28;20218;-91
2024/02/24 04:43:40;;;;;;;0.90;0.90;;;;;;;;;;5020437;28;20564;-90
2024/02/24 04:46:45;;;;;;;0.53;0.53;;;;;;;;;;5024860;28;20169;-91
2024/02/24 04:49:51;;;;;;;0.30;0.30;;;;;;;;;;5012840;28;20265;-91
2024/02/24 04:52:56;;;;;;;0.57;0.57;;;;;;;;;;5020752;28;20199;-91
2024/02/24 04:56:03;;;;;;;0.40;0.40;;;;;;;;;;5028993;28;20197;-91
2024/02/24 04:59:08;;;;;;;0.40;0.40;;;;;;;;;;5028022;28;20197;-91
2024/02/24 05:02:14;;;;;;;0.40;0.40;;;;;;;;;;5028739;28;20325;-91
2024/02/24 05:05:18;;;;;;;0.63;0.63;;;;;;;;;;5028582;28;20208;-91
2024/02/24 05:08:24;;;;;;;2.23;0.60;;;;;;;;;;5026287;28;20208;-91
2024/02/24 05:11:31;;;;;;;0.50;0.50;;;;;;;;;;5029355;28;20204;-90
2024/02/24 05:14:37;;;;;;;0.50;0.50;;;;;;;;;;5028789;28;20188;-91
2024/02/24 05:17:42;;;;;;;1.07;0.90;;;;;;;;;;5029403;28;20239;-90
2024/02/24 05:20:47;;;;;;;0.40;0.40;;;;;;;;;;5028518;28;20240;-92
2024/02/24 05:23:52;;;;;;;0.40;0.40;;;;;;;;;;5027064;28;20613;-90
2024/02/24 05:27:00;;;;;;;0.30;0.30;;;;;;;;;;5026966;28;20208;-91
2024/02/24 05:30:06;;;;;;;0.73;0.73;;;;;;;;;;5028573;28;20181;-91
2024/02/24 05:33:12;;;;;;;0.40;0.40;;;;;;;;;;5028199;28;20200;-91
2024/02/24 05:36:18;;;;;;;0.53;0.53;;;;;;;;;;5028118;28;20204;-91
2024/02/24 05:39:24;;;;;;;0.50;0.50;;;;;;;;;;5027679;28;20691;-91
2024/02/24 05:42:31;;;;;;;0.40;0.40;;;;;;;;;;5027595;28;20249;-92
2024/02/24 05:45:38;;;;;;;0.40;0.40;;;;;;;;;;5029482;28;20212;-91
2024/02/24 07:34:55;;;;;;;10.73;5.10;;;;;;;;;;4980939;28;20254;-92
2024/02/24 07:38:01;;;;;;;7.53;4.23;;;;;;;;;;4947214;28;20251;-89
2024/02/24 07:41:09;;;;;;;6.43;3.33;;;;;;;;;;4960965;28;20678;-92
2024/02/24 07:44:18;;;;;;;5.50;3.07;;;;;;;;;;4950972;28;20199;-92
2024/02/24 07:47:35;;;;;;;7.43;3.63;;;;;;;;;;4967655;28;20198;-91
2024/02/24 07:50:45;;;;;;;6.20;3.30;;;;;;;;;;4969458;28;20210;-92
2024/02/24 07:53:50;;;;;;;4.83;3.10;;;;;;;;;;4970208;28;20170;-92
2024/02/24 07:56:57;;;;;;;5.03;3.03;;;;;;;;;;4972460;28;20186;-92
2024/02/24 08:00:07;;;;;;;6.50;3.20;;;;;;;;;;4975387;28;20257;-91
2024/02/24 08:03:15;;;;;;;5.27;3.27;;;;;;;;;;4976492;28;20190;-91
2024/02/24 08:06:35;;;;;;;5.43;3.27;;;;;;;;;;4966391;28;20730;-92
2024/02/24 08:09:42;;;;;;;10.07;4.23;;;;;;;;;;4954407;28;20324;-92
2024/02/24 08:12:52;;;;;;;11.17;5.67;;;;;;;;;;4992200;28;20210;-91
2024/02/24 08:16:04;;;;;;;7.80;3.87;;;;;;;;;;5003966;28;20193;-91
2024/02/24 08:19:13;;;;;;;5.07;2.57;;;;;;;;;;4993153;28;20260;-92
2024/02/24 08:22:20;;;;;;;4.40;2.77;;;;;;;;;;4994599;28;20234;-90
2024/02/24 08:25:29;;;;;;;9.90;2.57;;;;;;;;;;5007713;28;20254;-92
2024/02/24 08:28:35;;;;;;;5.13;2.60;;;;;;;;;;4997115;28;20178;-92
2024/02/24 08:31:43;;;;;;;3.97;2.50;;;;;;;;;;4999193;28;20224;-92
2024/02/24 08:34:55;;;;;;;3.90;2.67;;;;;;;;;;4998501;28;20190;-92
2024/02/24 08:38:03;;;;;;;4.30;2.50;;;;;;;;;;4991514;28;20175;-91
2024/02/24 08:41:10;;;;;;;3.50;2.30;;;;;;;;;;4976771;28;20198;-90
2024/02/24 08:44:16;;;;;;;3.70;2.60;;;;;;;;;;4977612;28;20207;-91
2024/02/24 08:47:23;;;;;;;3.70;2.40;;;;;;;;;;4978296;28;20273;-92
2024/02/24 09:16:56;;;;;;;8.13;3.28;;;;;;;;;;5250783;23;20238;-90
2024/02/24 09:20:03;;;;;;;242.43;89.97;;;;;;;;;;4993056;28;20217;-92
2024/02/24 09:23:09;;;;;;;4.90;2.90;;;;;;;;;;4990995;28;20205;-91
2024/02/24 09:26:15;;;;;;;4.15;2.33;;;;;;;;;;4990129;28;20225;-92
2024/02/24 09:29:21;;;;;;;5.15;2.60;;;;;;;;;;4989480;28;20218;-92
2024/02/24 09:32:30;;;;;;;4.85;2.70;;;;;;;;;;4989294;28;20209;-92
2024/02/24 09:35:43;;;;;;;4.75;2.83;;;;;;;;;;4991207;28;20213;-92
2024/02/24 09:38:49;;;;;;;4.55;2.30;;;;;;;;;;4989706;28;20190;-92
2024/02/24 09:42:00;;;;;;;5.40;2.50;;;;;;;;;;4990482;28;20186;-93
2024/02/24 09:45:09;;;;;;;6.85;3.03;;;;;;;;;;4990722;28;20716;-91
2024/02/24 09:48:17;;;;;;;7.28;3.15;;;;;;;;;;4991296;28;20214;-90
2024/02/24 09:51:24;;;;;;;3.90;2.20;;;;;;;;;;4991656;28;20226;-92
2024/02/24 09:54:32;;;;;;;3.05;2.10;;;;;;;;;;4990331;28;20261;-92
2024/02/24 09:57:38;;;;;;;3.50;2.00;;;;;;;;;;4990520;28;20237;-91
2024/02/24 10:00:45;;;;;;;3.13;1.88;;;;;;;;;;4990877;28;20181;-91
2024/02/24 13:40:07;;;;;;;12.88;5.15;;;;;;;;;;6080493;22;3163731;-92
2024/02/24 13:43:13;;;;;;;14.55;5.80;;;;;;;;;;6172475;23;20169;-93
2024/02/24 13:46:18;;;;;;;13.65;5.80;;;;;;;;;;6170315;23;20208;-91
2024/02/24 13:49:24;;;;;;;14.55;6.45;;;;;;;;;;6172552;23;20157;-92
2024/02/24 13:52:29;;;;;;;15.20;6.50;;;;;;;;;;6175600;23;20189;-91
2024/02/24 13:55:37;;;;;;;17.35;7.63;;;;;;;;;;6172697;23;20176;-91
2024/02/24 13:58:42;;;;;;;15.93;7.35;;;;;;;;;;6172908;23;20168;-93
2024/02/24 14:01:49;;;;;;;15.68;6.80;;;;;;;;;;6174678;23;20220;-91
2024/02/24 14:04:56;;;;;;;13.27;6.57;;;;;;;;;;6174268;23;20172;-92
2024/02/24 14:08:04;;;;;;;17.70;7.28;;;;;;;;;;6174043;23;20153;-91
2024/02/24 14:11:12;;;;;;;14.32;6.72;;;;;;;;;;6172304;23;20176;-92
2024/02/24 14:14:17;;;;;;;17.13;7.03;;;;;;;;;;6173202;23;20175;-91
2024/02/24 14:17:27;;;;;;;12.45;6.15;;;;;;;;;;6172545;23;20173;-92
2024/02/24 14:20:34;;;;;;;16.05;7.55;;;;;;;;;;6171499;23;20172;-91
2024/02/24 14:23:39;;;;;;;16.45;6.90;;;;;;;;;;6170868;23;20156;-93
2024/02/24 14:26:46;;;;;;;15.00;6.57;;;;;;;;;;6171229;23;20200;-91
2024/02/24 14:29:52;;;;;;;13.48;6.30;;;;;;;;;;6169759;23;20193;-91
2024/02/24 14:32:57;;;;;;;14.32;6.60;;;;;;;;;;6171120;23;20176;-90
2024/02/24 14:36:02;;;;;;;19.10;7.47;;;;;;;;;;6170770;23;20175;-91
2024/02/24 14:42:31;;;;;;;17.02;6.65;;;;;;;;;;6167162;23;20169;-92
2024/02/24 14:45:37;;;;;;;13.70;6.43;;;;;;;;;;6169973;23;20199;-92
2024/02/24 14:48:43;;;;;;;12.93;6.32;;;;;;;;;;6169585;23;20173;-91
2024/02/24 14:51:48;;;;;;;16.02;6.57;;;;;;;;;;6168376;23;20694;-91
2024/02/24 14:54:54;;;;;;;12.55;6.40;;;;;;;;;;6172110;23;20173;-92
2024/02/24 14:58:02;;;;;;;12.95;6.03;;;;;;;;;;6171663;23;20247;-92
2024/02/24 15:01:08;;;;;;;11.75;5.82;;;;;;;;;;6172859;23;20643;-91
2024/02/24 15:04:14;;;;;;;12.25;5.80;;;;;;;;;;6173267;23;20255;-91
2024/02/24 15:07:20;;;;;;;13.43;6.25;;;;;;;;;;6170370;23;20176;-93
2024/02/24 15:10:25;;;;;;;11.52;6.28;;;;;;;;;;6169032;23;20164;-91
2024/02/24 15:13:31;;;;;;;12.48;6.78;;;;;;;;;;6171158;23;20148;-92
2024/02/24 15:16:37;;;;;;;14.55;5.75;;;;;;;;;;6170048;23;20168;-90
2024/02/24 15:19:45;;;;;;;11.13;5.88;;;;;;;;;;6171419;23;20164;-92
2024/02/24 15:22:51;;;;;;;11.82;5.40;;;;;;;;;;6172872;23;20152;-92
2024/02/24 15:26:11;;;;;;;16.48;5.35;;;;;;;;;;6174809;23;20204;-92
2024/02/24 15:29:19;;;;;;;10.70;5.40;;;;;;;;;;6172363;23;20236;-91
2024/02/24 15:32:28;;;;;;;13.23;5.88;;;;;;;;;;6173127;23;20169;-93
2024/02/24 15:35:33;;;;;;;13.07;6.10;;;;;;;;;;6171881;23;20163;-92
2024/02/24 15:38:39;;;;;;;17.88;6.53;;;;;;;;;;6172787;23;20208;-91
2024/02/24 15:41:47;;;;;;;14.98;6.50;;;;;;;;;;6174650;23;20173;-91
2024/02/24 15:44:54;;;;;;;18.02;6.95;;;;;;;;;;6174284;23;20249;-93
2024/02/24 15:47:59;;;;;;;18.38;7.45;;;;;;;;;;6171979;23;20169;-92
2024/02/24 15:51:06;;;;;;;19.83;8.02;;;;;;;;;;6173836;23;20253;-90
2024/02/24 15:54:11;;;;;;;22.10;8.65;;;;;;;;;;6173982;23;20193;-92
2024/02/24 15:57:17;;;;;;;23.33;9.50;;;;;;;;;;6173299;23;20168;-91
2024/02/24 16:00:25;;;;;;;25.08;9.48;;;;;;;;;;6175042;23;20193;-92
2024/02/24 16:03:32;;;;;;;22.65;8.43;;;;;;;;;;6174115;23;20168;-90
2024/02/24 16:06:38;;;;;;;21.20;8.85;;;;;;;;;;6173761;23;20192;-92
2024/02/24 16:09:44;;;;;;;25.27;9.82;;;;;;;;;;6169684;23;20188;-91
2024/02/24 16:12:51;;;;;;;25.80;9.55;;;;;;;;;;6170785;23;20247;-92
2024/02/24 16:15:58;;;;;;;25.35;10.02;;;;;;;;;;6171334;23;20234;-92
2024/02/24 16:19:05;;;;;;;32.30;10.63;;;;;;;;;;6169222;23;20161;-92
2024/02/24 16:22:10;;;;;;;22.95;9.48;;;;;;;;;;6168931;23;20172;-91
2024/02/24 16:25:18;;;;;;;203.55;84.65;;;;;;;;;;6173059;23;20217;-92
2024/02/24 16:28:23;;;;;;;33.33;13.55;;;;;;;;;;6171961;23;20176;-92
2024/02/24 16:31:31;;;;;;;29.35;10.85;;;;;;;;;;6173338;23;20153;-92
2024/02/24 16:34:37;;;;;;;27.42;9.45;;;;;;;;;;6174948;23;20165;-92
2024/02/24 16:37:42;;;;;;;30.27;10.73;;;;;;;;;;6173676;23;20171;-94
2024/02/24 16:40:50;;;;;;;37.03;12.73;;;;;;;;;;6174103;23;20172;-92
2024/02/24 16:43:56;;;;;;;69.10;29.05;;;;;;;;;;6170732;23;20688;-91
2024/02/24 16:47:02;;;;;;;43.53;17.88;;;;;;;;;;6169931;23;20196;-91
2024/02/24 16:50:12;;;;;;;30.33;12.18;;;;;;;;;;6172380;23;20169;-92
2024/02/24 16:53:17;;;;;;;33.35;12.48;;;;;;;;;;6171069;23;20285;-91
2024/02/24 17:03:02;;;;;;;28.95;10.48;;;;;;;;;;6171017;23;20184;-91
2024/02/24 17:06:09;;;;;;;34.45;12.32;;;;;;;;;;6172510;23;20200;-92
2024/02/24 17:09:14;;;;;;;36.47;12.35;;;;;;;;;;6170138;23;20220;-93
2024/02/24 17:12:20;;;;;;;37.08;13.15;;;;;;;;;;6173441;23;20289;-94
2024/02/24 17:15:26;;;;;;;47.47;19.92;;;;;;;;;;6171610;23;20184;-92
2024/02/24 17:18:47;;;;;;;60.20;21.90;;;;;;;;;;6171242;23;20180;-92
2024/02/24 17:21:53;;;;;;;75.00;24.48;;;;;;;;;;6171817;23;20152;-91
2024/02/24 17:25:03;;;;;;;48.20;17.77;;;;;;;;;;6171485;23;20168;-91
2024/02/24 17:28:10;;;;;;;43.78;16.35;;;;;;;;;;6153331;23;20167;-92
2024/02/24 17:31:15;;;;;;;39.67;14.82;;;;;;;;;;6177983;23;20197;-93
2024/02/24 17:34:21;;;;;;;41.85;15.75;;;;;;;;;;6172113;23;20172;-93
2024/02/24 17:37:29;;;;;;;34.67;14.23;;;;;;;;;;6171821;23;20615;-91
2024/02/24 17:40:35;;;;;;;38.65;13.88;;;;;;;;;;6170226;23;20178;-92
2024/02/24 17:43:41;;;;;;;42.03;14.38;;;;;;;;;;6171259;23;20232;-93
2024/02/24 17:46:47;;;;;;;36.67;15.40;;;;;;;;;;6174690;23;20184;-93
2024/02/24 17:49:55;;;;;;;38.15;15.68;;;;;;;;;;6171449;23;20620;-93
2024/02/24 17:53:02;;;;;;;39.45;15.85;;;;;;;;;;6172090;23;20725;-92
2024/02/24 17:56:07;;;;;;;37.85;14.77;;;;;;;;;;6173367;23;20213;-93
2024/02/24 17:59:13;;;;;;;44.72;16.33;;;;;;;;;;6171655;23;20181;-91
2024/02/24 18:02:22;;;;;;;44.33;16.93;;;;;;;;;;6187875;23;20178;-92
2024/02/24 18:05:29;;;;;;;39.23;16.27;;;;;;;;;;6172874;23;20420;-92
2024/02/24 18:08:36;;;;;;;35.55;14.07;;;;;;;;;;6172810;23;20240;-92
2024/02/24 18:11:42;;;;;;;40.22;16.35;;;;;;;;;;6172694;23;20216;-90
2024/02/24 18:14:47;;;;;;;35.47;15.00;;;;;;;;;;6170374;23;20172;-92
2024/02/24 18:17:53;;;;;;;48.07;19.27;;;;;;;;;;6171088;23;20175;-91
2024/02/24 18:20:58;;;;;;;39.87;15.70;;;;;;;;;;6169109;23;20176;-91
2024/02/24 18:24:06;;;;;;;39.73;14.00;;;;;;;;;;6171491;23;20161;-92
2024/02/24 18:27:11;;;;;;;37.60;14.63;;;;;;;;;;6169547;23;20196;-93
2024/02/24 18:30:16;;;;;;;44.60;14.87;;;;;;;;;;6172000;23;20168;-91
2024/02/24 18:33:21;;;;;;;50.77;18.37;;;;;;;;;;6170706;23;20165;-90
2024/02/24 18:36:27;;;;;;;55.70;20.20;;;;;;;;;;6169865;23;20497;-91
2024/02/24 18:39:34;;;;;;;47.43;18.53;;;;;;;;;;6170173;23;20236;-92
2024/02/24 18:42:41;;;;;;;35.83;15.00;;;;;;;;;;6169245;23;20252;-91
2024/02/24 18:45:47;;;;;;;39.27;14.53;;;;;;;;;;6173863;23;20176;-93
2024/02/24 18:48:52;;;;;;;36.33;14.33;;;;;;;;;;6188992;23;20196;-92
2024/02/24 18:52:07;;;;;;;35.57;13.70;;;;;;;;;;6175333;23;20180;-92
2024/02/24 18:55:14;;;;;;;34.47;14.17;;;;;;;;;;6190859;23;20218;-92
2024/02/24 18:58:19;;;;;;;38.27;13.93;;;;;;;;;;6173754;23;20248;-91
2024/02/24 19:01:25;;;;;;;35.27;13.17;;;;;;;;;;6174790;23;20168;-90
2024/02/24 19:04:31;;;;;;;40.10;13.80;;;;;;;;;;6174912;23;20169;-93
2024/02/24 19:07:42;;;;;;;37.67;13.93;;;;;;;;;;6171056;23;20180;-93
2024/02/24 19:10:50;;;;;;;41.43;16.03;;;;;;;;;;6172356;23;20152;-92
2024/02/24 19:13:55;;;;;;;35.20;14.97;;;;;;;;;;6155528;23;20168;-93
2024/02/24 19:17:01;;;;;;;37.03;14.87;;;;;;;;;;6172725;23;20171;-93
2024/02/24 19:20:08;;;;;;;44.67;18.00;;;;;;;;;;6172068;23;20198;-91
2024/02/24 19:23:15;;;;;;;36.27;13.57;;;;;;;;;;6172486;23;20664;-92
2024/02/24 19:26:22;;;;;;;43.63;14.77;;;;;;;;;;6173722;23;20161;-91
2024/02/24 19:29:27;;;;;;;56.90;22.63;;;;;;;;;;6172885;23;20507;-92
2024/02/24 19:32:34;;;;;;;43.67;15.37;;;;;;;;;;6172898;23;20168;-91
2024/02/24 19:35:41;;;;;;;39.93;13.50;;;;;;;;;;6171437;23;20157;-92
2024/02/24 19:38:51;;;;;;;39.80;14.93;;;;;;;;;;6170176;23;20196;-91
2024/02/24 19:41:57;;;;;;;37.43;13.87;;;;;;;;;;6171748;23;20153;-92
2024/02/24 19:45:04;;;;;;;36.43;13.83;;;;;;;;;;6170860;23;20168;-92
2024/02/24 19:48:10;;;;;;;40.63;13.83;;;;;;;;;;6170020;23;20527;-92
2024/02/24 19:51:16;;;;;;;33.30;13.70;;;;;;;;;;6169832;23;20216;-91
2024/02/24 19:54:22;;;;;;;36.33;14.07;;;;;;;;;;6173107;23;20177;-93
2024/02/24 19:57:29;;;;;;;34.93;13.53;;;;;;;;;;6172601;23;20176;-92
2024/02/24 20:00:36;;;;;;;32.77;14.30;;;;;;;;;;6171772;23;20188;-92
2024/02/24 20:03:41;;;;;;;38.83;14.90;;;;;;;;;;6173871;23;20169;-93
2024/02/24 20:06:47;;;;;;;47.23;20.13;;;;;;;;;;6169853;23;20196;-91
2024/02/24 20:09:52;;;;;;;41.87;18.57;;;;;;;;;;6169198;23;20247;-92
2024/02/24 20:12:59;;;;;;;45.83;18.47;;;;;;;;;;6169039;23;20241;-93
2024/02/24 20:16:04;;;;;;;39.50;18.30;;;;;;;;;;6168952;23;20164;-91
2024/02/24 20:19:09;;;;;;;48.63;21.03;;;;;;;;;;6173082;23;20216;-92
2024/02/24 20:22:15;;;;;;;40.37;17.20;;;;;;;;;;6168552;23;20168;-92
2024/02/24 20:25:20;;;;;;;35.57;16.87;;;;;;;;;;6170685;23;20172;-92
2024/02/24 20:28:27;;;;;;;42.80;16.57;;;;;;;;;;6168948;23;20192;-92
2024/02/24 20:31:32;;;;;;;38.73;18.83;;;;;;;;;;6170773;23;20184;-92
2024/02/24 20:34:37;;;;;;;34.90;15.53;;;;;;;;;;6168337;23;20168;-93
2024/02/24 20:37:43;;;;;;;40.50;16.43;;;;;;;;;;6169420;23;20172;-92
2024/02/24 20:40:48;;;;;;;40.67;16.00;;;;;;;;;;6168213;23;20173;-92
2024/02/24 20:43:57;;;;;;;33.03;15.20;;;;;;;;;;6167997;23;20188;-92
2024/02/24 20:47:02;;;;;;;35.53;15.03;;;;;;;;;;6169988;23;20257;-92
2024/02/24 20:50:08;;;;;;;37.53;14.10;;;;;;;;;;6170770;23;20169;-93
2024/02/24 20:53:13;;;;;;;37.70;14.77;;;;;;;;;;6168454;23;20180;-94
2024/02/24 20:56:17;;;;;;;35.73;14.40;;;;;;;;;;6166063;23;20713;-91
2024/02/24 20:59:24;;;;;;;40.03;17.20;;;;;;;;;;6166400;23;20161;-92
2024/02/24 21:02:29;;;;;;;43.70;18.13;;;;;;;;;;6171866;23;20159;-92
2024/02/24 21:05:34;;;;;;;39.83;16.40;;;;;;;;;;6167402;23;20178;-92
2024/02/24 21:20:26;;;;;;;64.30;23.20;;;;;;;;;;6193741;23;20196;-94
2024/02/24 21:23:32;;;;;;;57.70;22.67;;;;;;;;;;6201613;23;20163;-91
2024/02/24 21:26:38;;;;;;;51.60;19.03;;;;;;;;;;6199972;23;20168;-91
2024/02/24 21:29:44;;;;;;;44.27;16.77;;;;;;;;;;6199575;23;20163;-93
2024/02/24 21:32:50;;;;;;;41.97;16.03;;;;;;;;;;6197459;23;20508;-91
2024/02/24 21:36:01;;;;;;;37.43;14.40;;;;;;;;;;6199552;23;20152;-93
2024/02/24 21:39:06;;;;;;;47.67;14.07;;;;;;;;;;6198959;23;20215;-92
2024/02/24 21:42:12;;;;;;;38.80;14.57;;;;;;;;;;6197995;23;20167;-94
2024/02/24 21:45:17;;;;;;;40.40;14.83;;;;;;;;;;6197945;23;20247;-91
2024/02/24 21:48:22;;;;;;;48.37;13.97;;;;;;;;;;6196940;23;20195;-92
2024/02/24 21:51:29;;;;;;;37.70;14.37;;;;;;;;;;6198230;23;20225;-93
2024/02/24 21:54:35;;;;;;;38.87;13.07;;;;;;;;;;6198487;23;20175;-92
2024/02/24 21:57:41;;;;;;;45.43;14.37;;;;;;;;;;6199199;23;20171;-93
2024/02/24 22:00:46;;;;;;;53.53;16.93;;;;;;;;;;6198764;23;20183;-91
2024/02/24 22:03:52;;;;;;;64.40;15.07;;;;;;;;;;6178204;23;20151;-92
2024/02/24 22:06:58;;;;;;;61.00;14.90;;;;;;;;;;6179810;23;20220;-93
2024/02/24 22:10:03;;;;;;;76.13;16.23;;;;;;;;;;6180163;23;20611;-93
2024/02/24 22:13:10;;;;;;;51.17;13.77;;;;;;;;;;6180974;23;20615;-92
2024/02/24 22:16:15;;;;;;;41.70;11.67;;;;;;;;;;6180657;23;20168;-93
2024/02/24 22:19:20;;;;;;;34.03;11.20;;;;;;;;;;6180835;23;20248;-92
2024/02/24 22:22:27;;;;;;;30.73;12.20;;;;;;;;;;6180739;23;20167;-91
2024/02/24 22:25:32;;;;;;;49.57;13.10;;;;;;;;;;6180894;23;20205;-92
2024/02/24 22:28:38;;;;;;;64.50;12.43;;;;;;;;;;6180730;23;20267;-91
2024/02/24 22:31:44;;;;;;;63.00;11.67;;;;;;;;;;6179228;23;20176;-92
2024/02/24 22:34:49;;;;;;;54.47;11.73;;;;;;;;;;6179450;23;20504;-91
2024/02/24 22:37:56;;;;;;;50.93;10.73;;;;;;;;;;6179713;23;20168;-90
2024/02/24 22:41:06;;;;;;;80.63;11.80;;;;;;;;;;6177703;23;20227;-92
2024/02/24 22:44:11;;;;;;;52.97;10.80;;;;;;;;;;6181200;23;20171;-92
2024/02/24 22:47:17;;;;;;;101.17;11.70;;;;;;;;;;6181362;23;20217;-92
2024/02/24 22:50:22;;;;;;;50.23;10.53;;;;;;;;;;6183238;23;20192;-92
2024/02/24 22:53:29;;;;;;;57.93;10.70;;;;;;;;;;6181050;23;20168;-91
2024/02/24 22:56:35;;;;;;;52.67;10.87;;;;;;;;;;6180844;23;20194;-92
2024/02/24 22:59:43;;;;;;;45.17;10.83;;;;;;;;;;6182261;23;20163;-91
2024/02/24 23:02:56;;;;;;;44.50;10.47;;;;;;;;;;6181786;23;20196;-91
2024/02/24 23:06:01;;;;;;;29.33;10.73;;;;;;;;;;6180616;23;20168;-93
2024/02/24 23:09:08;;;;;;;55.77;10.37;;;;;;;;;;6179406;23;20200;-91
2024/02/24 23:12:16;;;;;;;44.13;10.10;;;;;;;;;;6178712;23;20189;-91
2024/02/24 23:15:22;;;;;;;56.83;11.20;;;;;;;;;;6182247;23;20171;-92
2024/02/24 23:18:27;;;;;;;46.40;9.67;;;;;;;;;;6184502;23;20268;-91
2024/02/24 23:21:35;;;;;;;62.43;11.63;;;;;;;;;;6184054;23;20608;-92
2024/02/24 23:24:41;;;;;;;58.60;10.47;;;;;;;;;;6183524;23;20293;-92
2024/02/24 23:27:47;;;;;;;30.83;10.07;;;;;;;;;;6181721;23;20191;-91
2024/02/24 23:30:52;;;;;;;35.37;9.07;;;;;;;;;;6182919;23;20151;-92
2024/02/24 23:33:58;;;;;;;30.87;9.10;;;;;;;;;;6181278;23;20507;-93
2024/02/24 23:37:03;;;;;;;42.07;9.17;;;;;;;;;;6181986;23;20175;-90
2024/02/24 23:40:11;;;;;;;34.20;10.07;;;;;;;;;;6180283;23;20211;-94
2024/02/24 23:43:16;;;;;;;50.83;10.33;;;;;;;;;;6181357;23;20511;-92
2024/02/24 23:46:21;;;;;;;35.50;8.53;;;;;;;;;;6183078;23;20672;-92
2024/02/24 23:49:26;;;;;;;17.80;8.30;;;;;;;;;;6183230;23;20200;-92
2024/02/24 23:52:35;;;;;;;23.07;7.67;;;;;;;;;;6182078;23;20167;-92
2024/02/24 23:55:42;;;;;;;35.77;9.33;;;;;;;;;;6181989;23;20275;-92
2024/02/24 23:58:47;;;;;;;18.83;8.60;;;;;;;;;;6180946;23;20167;-92
